LYTV/TIV METAR and TAF weather

Enter ICAO airport designator
Station Type Date Time Source
LYTV METAR 2020/11/27 13:30 UTC NOAA

LYTV 271330Z 24003KT 190V290 CAVOK 17/08 Q1021 NOSIG


Station Type Date Time Source
LYTV Decoded METAR 2020/11/27 13:30 UTC NOAA

Tivat, Serbia and Montenegro (LYTV) 42-24N 018-44E 5M
Nov 27, 2020 - 08:30 AM EST / 2020.11.27 1330 UTC
Wind: from the WSW (240 degrees) at 3 MPH (3 KT) (direction variable):0
Visibility: greater than 7 mile(s):0
Temperature: 62 F (17 C)
Dew Point: 46 F (8 C)
Relative Humidity: 55%
Pressure (altimeter): 30.15 in. Hg (1021 hPa)
ob: LYTV 271330Z 24003KT 190V290 CAVOK 17/08 Q1021 NOSIG
cycle: 13

Station Type Date Time Source
LYTV TAF 2020/11/27 12:21 UTC NOAA

TAF LYTV 271100Z 2712/2812 24005KT CAVOK TX17/2713Z TNM01/2805Z

Example: see airport list